createdAt,value
2023-05-17T00:00:50.625Z,1021.98
2023-05-17T00:01:50.654Z,1022
2023-05-17T00:02:50.675Z,1022.01
2023-05-17T00:03:50.651Z,1022.01
2023-05-17T00:04:50.727Z,1022.04
2023-05-17T00:05:50.661Z,1022.02
2023-05-17T00:06:50.631Z,1021.98
2023-05-17T00:07:50.633Z,1022.02
2023-05-17T00:08:50.631Z,1021.95
2023-05-17T00:09:50.632Z,1022.03
2023-05-17T00:10:50.623Z,1022.01
2023-05-17T00:11:50.617Z,1022.02
2023-05-17T00:12:50.630Z,1022.03
2023-05-17T00:13:50.637Z,1022.04
2023-05-17T00:14:50.626Z,1022.04
2023-05-17T00:15:50.615Z,1022
2023-05-17T00:16:50.639Z,1022
2023-05-17T00:17:50.685Z,1022.01
2023-05-17T00:18:50.795Z,1022.02
2023-05-17T00:19:50.749Z,1021.98
2023-05-17T00:20:50.643Z,1022.06
2023-05-17T00:21:50.638Z,1022.04
2023-05-17T00:22:50.634Z,1022.09
2023-05-17T00:23:50.636Z,1022.07
2023-05-17T00:24:50.630Z,1022.11
2023-05-17T00:25:50.616Z,1022.11
2023-05-17T00:26:50.636Z,1022.12
2023-05-17T00:27:50.643Z,1022.07
2023-05-17T00:28:50.632Z,1022.07
2023-05-17T00:29:50.629Z,1022.07
2023-05-17T00:30:50.619Z,1022.05
2023-05-17T00:31:50.626Z,1022.06
2023-05-17T00:32:50.733Z,1022.08
2023-05-17T00:33:50.624Z,1022.07
2023-05-17T00:34:50.693Z,1022.1
2023-05-17T00:35:50.648Z,1022.1
2023-05-17T00:36:50.621Z,1022.09
2023-05-17T00:37:50.626Z,1022.09
2023-05-17T00:38:50.623Z,1022.13
2023-05-17T00:39:50.637Z,1022.15
2023-05-17T00:40:50.634Z,1022.15
2023-05-17T00:41:50.630Z,1022.21
2023-05-17T00:42:50.623Z,1022.2
2023-05-17T00:43:50.626Z,1022.2
2023-05-17T00:44:50.620Z,1022.24
2023-05-17T00:45:50.646Z,1022.24
2023-05-17T00:46:50.627Z,1022.26
2023-05-17T00:47:50.691Z,1022.31
2023-05-17T00:48:50.673Z,1022.26
2023-05-17T00:49:50.627Z,1022.26
2023-05-17T00:50:50.647Z,1022.3
2023-05-17T00:51:50.628Z,1022.3
2023-05-17T00:52:50.633Z,1022.28
2023-05-17T00:53:50.672Z,1022.27
2023-05-17T00:54:50.634Z,1022.28
2023-05-17T00:55:50.636Z,1022.3
2023-05-17T00:56:50.623Z,1022.31
2023-05-17T00:57:50.640Z,1022.31
2023-05-17T00:58:50.648Z,1022.34
2023-05-17T00:59:50.638Z,1022.34
2023-05-17T01:00:50.629Z,1022.34
2023-05-17T01:01:50.618Z,1022.3
2023-05-17T01:02:50.687Z,1022.36
2023-05-17T01:03:50.770Z,1022.34
2023-05-17T01:04:50.669Z,1022.29
2023-05-17T01:05:50.643Z,1022.29
2023-05-17T01:06:50.628Z,1022.27
2023-05-17T01:07:50.622Z,1022.29
2023-05-17T01:08:50.632Z,1022.26
2023-05-17T01:09:50.629Z,1022.28
2023-05-17T01:10:50.652Z,1022.28
2023-05-17T01:11:50.637Z,1022.26
2023-05-17T01:12:50.630Z,1022.25
2023-05-17T01:13:51.059Z,1022.25
2023-05-17T01:14:50.626Z,1022.25
2023-05-17T01:15:50.634Z,1022.23
2023-05-17T01:16:50.627Z,1022.23
2023-05-17T01:17:50.844Z,1022.23
2023-05-17T01:18:50.677Z,1022.22
2023-05-17T01:19:50.808Z,1022.21
2023-05-17T01:20:50.631Z,1022.17
2023-05-17T01:21:50.661Z,1022.21
2023-05-17T01:22:50.663Z,1022.14
2023-05-17T01:23:50.693Z,1022.15
2023-05-17T01:24:50.656Z,1022.14
2023-05-17T01:25:50.630Z,1022.14
2023-05-17T01:26:50.643Z,1022.13
2023-05-17T01:27:50.642Z,1022.19
2023-05-17T01:28:50.641Z,1022.2
2023-05-17T01:29:50.628Z,1022.17
2023-05-17T01:30:50.643Z,1022.23
2023-05-17T01:31:50.627Z,1022.28
2023-05-17T01:32:50.692Z,1022.3
2023-05-17T01:33:50.761Z,1022.31
2023-05-17T01:34:50.637Z,1022.36
2023-05-17T01:35:50.638Z,1022.4
2023-05-17T01:36:50.633Z,1022.43
2023-05-17T01:37:50.634Z,1022.42
2023-05-17T01:38:50.626Z,1022.38
2023-05-17T01:39:50.629Z,1022.4
2023-05-17T01:40:50.628Z,1022.4
2023-05-17T01:41:50.637Z,1022.34
2023-05-17T01:42:50.629Z,1022.35
2023-05-17T01:43:50.653Z,1022.37
2023-05-17T01:44:50.632Z,1022.33
2023-05-17T01:45:50.635Z,1022.37
2023-05-17T01:46:50.621Z,1022.36
2023-05-17T01:47:50.843Z,1022.44
2023-05-17T01:48:50.660Z,1022.43
2023-05-17T01:49:50.639Z,1022.48
2023-05-17T01:50:50.635Z,1022.55
2023-05-17T01:51:50.624Z,1022.57
2023-05-17T01:52:50.630Z,1022.59
2023-05-17T01:53:50.627Z,1022.64
2023-05-17T01:54:50.629Z,1022.64
2023-05-17T01:55:50.635Z,1022.64
2023-05-17T01:56:50.633Z,1022.63
2023-05-17T01:57:50.615Z,1022.63
2023-05-17T01:58:50.628Z,1022.59
2023-05-17T01:59:50.628Z,1022.59
2023-05-17T02:00:50.672Z,1022.58
2023-05-17T02:01:50.643Z,1022.57
2023-05-17T02:02:50.656Z,1022.53
2023-05-17T02:03:50.686Z,1022.55
2023-05-17T02:04:50.639Z,1022.58
2023-05-17T02:05:50.661Z,1022.6
2023-05-17T02:06:50.619Z,1022.63
2023-05-17T02:07:50.613Z,1022.69
2023-05-17T02:08:50.622Z,1022.7
2023-05-17T02:09:50.654Z,1022.7
2023-05-17T02:10:50.620Z,1022.7
2023-05-17T02:11:50.631Z,1022.73
2023-05-17T02:12:50.650Z,1022.69
2023-05-17T02:13:50.639Z,1022.67
2023-05-17T02:14:50.639Z,1022.69
2023-05-17T02:15:50.627Z,1022.66
2023-05-17T02:16:50.623Z,1022.66
2023-05-17T02:17:50.734Z,1022.65
2023-05-17T02:18:50.678Z,1022.63
2023-05-17T02:19:50.636Z,1022.6
2023-05-17T02:20:50.647Z,1022.63
2023-05-17T02:21:50.630Z,1022.6
2023-05-17T02:22:50.626Z,1022.58
2023-05-17T02:23:50.630Z,1022.55
2023-05-17T02:24:50.632Z,1022.6
2023-05-17T02:25:50.635Z,1022.58
2023-05-17T02:26:50.624Z,1022.63
2023-05-17T02:27:50.624Z,1022.59
2023-05-17T02:28:50.633Z,1022.59
2023-05-17T02:29:50.625Z,1022.65
2023-05-17T02:30:50.641Z,1022.58
2023-05-17T02:31:50.634Z,1022.65
2023-05-17T02:32:50.680Z,1022.65
2023-05-17T02:34:50.640Z,1022.66
2023-05-17T02:35:50.657Z,1022.65
2023-05-17T02:36:50.622Z,1022.64
2023-05-17T02:37:50.650Z,1022.63
2023-05-17T02:38:50.666Z,1022.63
2023-05-17T02:39:50.641Z,1022.64
2023-05-17T02:40:50.662Z,1022.64
2023-05-17T02:41:50.638Z,1022.78
2023-05-17T02:42:50.639Z,1022.8
2023-05-17T02:43:50.619Z,1022.83
2023-05-17T02:44:50.630Z,1022.87
2023-05-17T02:45:50.619Z,1022.88
2023-05-17T02:46:50.652Z,1022.91
2023-05-17T02:47:50.815Z,1022.87
2023-05-17T02:48:50.625Z,1022.85
2023-05-17T02:49:50.635Z,1022.84
2023-05-17T02:50:50.646Z,1022.85
2023-05-17T02:51:50.633Z,1022.85
2023-05-17T02:52:50.624Z,1022.84
2023-05-17T02:53:50.617Z,1022.79
2023-05-17T02:54:50.631Z,1022.81
2023-05-17T02:55:50.626Z,1022.78
2023-05-17T02:56:50.648Z,1022.79
2023-05-17T02:57:50.649Z,1022.79
2023-05-17T02:58:50.637Z,1022.77
2023-05-17T02:59:50.637Z,1022.8
2023-05-17T03:00:50.638Z,1022.83
2023-05-17T03:01:50.634Z,1022.82
2023-05-17T03:02:50.691Z,1022.83
2023-05-17T03:03:50.695Z,1022.89
2023-05-17T03:04:50.752Z,1022.87
2023-05-17T03:05:50.643Z,1022.89
2023-05-17T03:06:50.643Z,1022.9
2023-05-17T03:07:50.623Z,1022.91
2023-05-17T03:08:50.617Z,1022.93
2023-05-17T03:09:50.645Z,1022.88
2023-05-17T03:10:50.637Z,1022.95
2023-05-17T03:11:50.630Z,1022.85
2023-05-17T03:12:50.613Z,1022.89
2023-05-17T03:13:50.627Z,1022.88
2023-05-17T03:14:50.637Z,1022.89
2023-05-17T03:15:50.644Z,1022.9
2023-05-17T03:16:50.624Z,1022.89
2023-05-17T03:17:50.721Z,1022.85
2023-05-17T03:18:50.789Z,1022.9
2023-05-17T03:19:50.735Z,1022.92
2023-05-17T03:20:50.636Z,1022.95
2023-05-17T03:21:50.616Z,1022.98
2023-05-17T03:22:50.645Z,1023.02
2023-05-17T03:23:50.620Z,1023.04
2023-05-17T03:24:50.650Z,1023.01
2023-05-17T03:25:50.624Z,1023.01
2023-05-17T03:26:50.616Z,1022.98
2023-05-17T03:27:50.643Z,1023.02
2023-05-17T03:28:50.644Z,1023
2023-05-17T03:29:50.627Z,1022.98
2023-05-17T03:30:50.695Z,1023
2023-05-17T03:31:50.632Z,1023.04
2023-05-17T03:32:50.729Z,1023.03
2023-05-17T03:33:50.827Z,1023.02
2023-05-17T03:34:50.629Z,1023
2023-05-17T03:35:50.644Z,1023.03
2023-05-17T03:36:50.621Z,1022.96
2023-05-17T03:37:50.624Z,1023.04
2023-05-17T03:38:50.650Z,1023.02
2023-05-17T03:39:50.617Z,1023.05
2023-05-17T03:40:50.623Z,1023.05
2023-05-17T03:41:50.635Z,1023.05
2023-05-17T03:42:50.624Z,1023.11
2023-05-17T03:43:50.660Z,1023.07
2023-05-17T03:44:50.624Z,1023.15
2023-05-17T03:45:50.619Z,1023.16
2023-05-17T03:46:50.614Z,1023.19
2023-05-17T03:47:50.650Z,1023.23
2023-05-17T03:48:50.656Z,1023.21
2023-05-17T03:49:50.634Z,1023.26
2023-05-17T03:50:50.659Z,1023.23
2023-05-17T03:51:50.622Z,1023.23
2023-05-17T03:52:50.643Z,1023.24
2023-05-17T03:53:50.611Z,1023.24
2023-05-17T03:54:50.621Z,1023.2
2023-05-17T03:55:50.620Z,1023.21
2023-05-17T03:56:50.657Z,1023.22
2023-05-17T03:57:50.627Z,1023.2
2023-05-17T03:58:50.627Z,1023.22
2023-05-17T03:59:50.608Z,1023.18
2023-05-17T04:00:50.625Z,1023.18
2023-05-17T04:01:50.641Z,1023.16
2023-05-17T04:02:50.735Z,1023.23
2023-05-17T04:03:50.622Z,1023.18
2023-05-17T04:04:50.680Z,1023.2
2023-05-17T04:05:50.648Z,1023.22
2023-05-17T04:06:50.634Z,1023.26
2023-05-17T04:07:50.628Z,1023.27
2023-05-17T04:08:50.649Z,1023.26
2023-05-17T04:09:50.633Z,1023.25
2023-05-17T04:10:50.623Z,1023.27
2023-05-17T04:11:50.638Z,1023.24
2023-05-17T04:12:50.622Z,1023.29
2023-05-17T04:13:50.630Z,1023.25
2023-05-17T04:14:50.628Z,1023.23
2023-05-17T04:15:50.636Z,1023.25
2023-05-17T04:16:50.718Z,1023.29
2023-05-17T04:17:50.667Z,1023.35
2023-05-17T04:18:50.688Z,1023.34
2023-05-17T04:19:50.777Z,1023.36
2023-05-17T04:20:50.644Z,1023.36
2023-05-17T04:21:50.632Z,1023.39
2023-05-17T04:22:50.620Z,1023.38
2023-05-17T04:23:50.649Z,1023.45
2023-05-17T04:24:50.615Z,1023.45
2023-05-17T04:25:50.633Z,1023.45
2023-05-17T04:26:50.630Z,1023.46
2023-05-17T04:27:50.633Z,1023.4
2023-05-17T04:28:50.664Z,1023.38
2023-05-17T04:29:50.634Z,1023.3
2023-05-17T04:30:50.644Z,1023.33
2023-05-17T04:31:50.617Z,1023.3
2023-05-17T04:32:50.670Z,1023.3
2023-05-17T04:33:50.706Z,1023.31
2023-05-17T04:34:50.639Z,1023.35
2023-05-17T04:35:50.650Z,1023.42
2023-05-17T04:36:50.633Z,1023.45
2023-05-17T04:37:50.638Z,1023.47
2023-05-17T04:38:50.626Z,1023.49
2023-05-17T04:39:50.636Z,1023.51
2023-05-17T04:40:50.628Z,1023.48
2023-05-17T04:41:50.623Z,1023.48
2023-05-17T04:42:50.631Z,1023.48
2023-05-17T04:43:50.634Z,1023.42
2023-05-17T04:44:50.632Z,1023.43
2023-05-17T04:45:50.629Z,1023.44
2023-05-17T04:46:50.638Z,1023.43
2023-05-17T04:47:50.704Z,1023.47
2023-05-17T04:48:50.830Z,1023.46
2023-05-17T04:49:50.633Z,1023.47
2023-05-17T04:50:50.637Z,1023.46
2023-05-17T04:51:50.632Z,1023.51
2023-05-17T04:52:50.638Z,1023.47
2023-05-17T04:53:50.641Z,1023.48
2023-05-17T04:54:50.630Z,1023.49
2023-05-17T04:55:50.624Z,1023.49
2023-05-17T04:56:50.630Z,1023.52
2023-05-17T04:57:50.642Z,1023.54
2023-05-17T04:58:52.789Z,1023.5
2023-05-17T04:59:50.635Z,1023.52
2023-05-17T05:00:50.626Z,1023.56
2023-05-17T05:01:50.641Z,1023.54
2023-05-17T05:02:50.663Z,1023.56
2023-05-17T05:03:50.673Z,1023.58
2023-05-17T05:04:50.658Z,1023.61
2023-05-17T05:05:50.636Z,1023.62
2023-05-17T05:06:50.624Z,1023.62
2023-05-17T05:07:50.616Z,1023.64
2023-05-17T05:08:50.632Z,1023.7
2023-05-17T05:09:50.628Z,1023.71
2023-05-17T05:10:50.622Z,1023.75
2023-05-17T05:11:50.622Z,1023.76
2023-05-17T05:12:50.630Z,1023.78
2023-05-17T05:13:50.627Z,1023.75
2023-05-17T05:14:50.644Z,1023.74
2023-05-17T05:15:50.627Z,1023.78
2023-05-17T05:16:50.633Z,1023.72
2023-05-17T05:17:50.818Z,1023.78
2023-05-17T05:18:50.836Z,1023.78
2023-05-17T05:19:50.684Z,1023.78
2023-05-17T05:20:50.637Z,1023.76
2023-05-17T05:21:50.637Z,1023.73
2023-05-17T05:22:50.620Z,1023.76
2023-05-17T05:23:50.625Z,1023.8
2023-05-17T05:24:50.619Z,1023.82
2023-05-17T05:25:50.632Z,1023.83
2023-05-17T05:26:50.619Z,1023.87
2023-05-17T05:27:50.626Z,1023.84
2023-05-17T05:28:50.620Z,1023.86
2023-05-17T05:29:50.611Z,1023.86
2023-05-17T05:30:50.632Z,1023.85
2023-05-17T05:31:50.629Z,1023.93
2023-05-17T05:32:50.703Z,1023.94
2023-05-17T05:33:50.669Z,1023.95
2023-05-17T05:34:50.623Z,1023.92
2023-05-17T05:35:50.643Z,1023.99
2023-05-17T05:36:50.632Z,1023.98
2023-05-17T05:37:50.605Z,1024
2023-05-17T05:38:50.615Z,1024.06
2023-05-17T05:39:50.655Z,1024.01
2023-05-17T05:40:50.617Z,1024.14
2023-05-17T05:41:50.630Z,1024.14
2023-05-17T05:42:50.632Z,1024.09
2023-05-17T05:43:50.663Z,1024.13
2023-05-17T05:44:50.641Z,1024.13
2023-05-17T05:45:50.652Z,1024.1
2023-05-17T05:46:50.621Z,1024.15
2023-05-17T05:47:50.704Z,1024.12
2023-05-17T05:48:50.658Z,1024.1
2023-05-17T05:49:50.630Z,1024.13
2023-05-17T05:50:50.766Z,1024.13
2023-05-17T05:51:50.668Z,1024.14
2023-05-17T05:52:50.618Z,1024.14
2023-05-17T05:53:50.629Z,1024.14
2023-05-17T05:54:50.619Z,1024.16
2023-05-17T05:55:50.634Z,1024.18
2023-05-17T05:56:50.624Z,1024.18
2023-05-17T05:57:50.626Z,1024.12
2023-05-17T05:58:50.626Z,1024.17
2023-05-17T05:59:50.626Z,1024.24
2023-05-17T06:00:50.620Z,1024.26
2023-05-17T06:01:50.613Z,1024.24
2023-05-17T06:02:50.708Z,1024.22
2023-05-17T06:03:50.629Z,1024.23
2023-05-17T06:04:50.657Z,1024.24
2023-05-17T06:05:50.789Z,1024.22
2023-05-17T06:06:50.708Z,1024.23
2023-05-17T06:07:50.637Z,1024.23
2023-05-17T06:08:50.641Z,1024.21
2023-05-17T06:09:50.628Z,1024.19
2023-05-17T06:10:50.649Z,1024.18
2023-05-17T06:11:50.627Z,1024.24
2023-05-17T06:12:50.656Z,1024.22
2023-05-17T06:13:50.631Z,1024.22
2023-05-17T06:14:50.631Z,1024.26
2023-05-17T06:15:50.627Z,1024.23
2023-05-17T06:16:50.642Z,1024.23
2023-05-17T06:17:50.764Z,1024.27
2023-05-17T06:18:51.610Z,1024.27
2023-05-17T06:19:50.693Z,1024.29
2023-05-17T06:20:50.635Z,1024.29
2023-05-17T06:21:50.654Z,1024.31
2023-05-17T06:22:50.633Z,1024.33
2023-05-17T06:23:50.624Z,1024.28
2023-05-17T06:24:50.632Z,1024.35
2023-05-17T06:25:50.625Z,1024.38
2023-05-17T06:26:50.636Z,1024.37
2023-05-17T06:27:50.652Z,1024.43
2023-05-17T06:28:50.628Z,1024.47
2023-05-17T06:29:50.625Z,1024.45
2023-05-17T06:30:50.645Z,1024.54
2023-05-17T06:31:50.629Z,1024.57
2023-05-17T06:32:50.667Z,1024.56
2023-05-17T06:33:50.659Z,1024.58
2023-05-17T06:34:50.634Z,1024.59
2023-05-17T06:35:57.177Z,1024.65
2023-05-17T06:36:50.636Z,1024.66
2023-05-17T06:37:50.631Z,1024.7
2023-05-17T06:38:50.625Z,1024.69
2023-05-17T06:39:55.562Z,1024.76
2023-05-17T06:40:50.639Z,1024.76
2023-05-17T06:41:50.627Z,1024.76
2023-05-17T06:42:50.624Z,1024.8
2023-05-17T06:43:50.638Z,1024.81
2023-05-17T06:44:50.737Z,1024.79
2023-05-17T06:45:50.627Z,1024.83
2023-05-17T06:46:50.626Z,1024.81
2023-05-17T06:47:50.686Z,1024.82
2023-05-17T06:48:51.520Z,1024.8
2023-05-17T06:49:50.630Z,1024.82
2023-05-17T06:50:50.651Z,1024.84
2023-05-17T06:51:50.610Z,1024.84
2023-05-17T06:52:50.619Z,1024.83
2023-05-17T06:53:50.622Z,1024.76
2023-05-17T06:54:50.636Z,1024.74
2023-05-17T06:55:50.627Z,1024.7
2023-05-17T06:56:50.621Z,1024.69
2023-05-17T06:57:50.654Z,1024.69
2023-05-17T06:58:50.626Z,1024.67
2023-05-17T06:59:50.647Z,1024.69
2023-05-17T07:00:50.617Z,1024.69
2023-05-17T07:01:50.625Z,1024.74
2023-05-17T07:02:50.714Z,1024.76
2023-05-17T07:03:50.715Z,1024.76
2023-05-17T07:04:50.706Z,1024.76
2023-05-17T07:05:50.654Z,1024.74
2023-05-17T07:06:50.627Z,1024.7
2023-05-17T07:07:50.616Z,1024.8
2023-05-17T07:08:51.658Z,1024.73
2023-05-17T07:09:50.623Z,1024.76
2023-05-17T07:10:50.621Z,1024.63
2023-05-17T07:11:50.747Z,1024.68
2023-05-17T07:12:50.641Z,1024.68
2023-05-17T07:13:52.226Z,1024.7
2023-05-17T07:14:50.617Z,1024.67
2023-05-17T07:15:50.614Z,1024.68
2023-05-17T07:16:50.636Z,1024.64
2023-05-17T07:17:50.669Z,1024.74
2023-05-17T07:18:50.684Z,1024.69
2023-05-17T07:19:50.752Z,1024.68
2023-05-17T07:20:50.642Z,1024.7
2023-05-17T07:21:50.632Z,1024.66
2023-05-17T07:22:50.630Z,1024.66
2023-05-17T07:23:50.633Z,1024.63
2023-05-17T07:24:50.635Z,1024.61
2023-05-17T07:25:50.626Z,1024.64
2023-05-17T07:26:52.326Z,1024.61
2023-05-17T07:27:50.649Z,1024.55
2023-05-17T07:28:50.630Z,1024.58
2023-05-17T07:29:50.619Z,1024.64
2023-05-17T07:30:50.629Z,1024.65
2023-05-17T07:31:50.644Z,1024.66
2023-05-17T07:32:50.748Z,1024.64
2023-05-17T07:33:50.648Z,1024.74
2023-05-17T07:34:50.635Z,1024.77
2023-05-17T07:35:50.665Z,1024.77
2023-05-17T07:36:50.648Z,1024.8
2023-05-17T07:37:50.637Z,1024.78
2023-05-17T07:38:50.641Z,1024.76
2023-05-17T07:39:50.645Z,1024.73
2023-05-17T07:40:50.635Z,1024.69
2023-05-17T07:41:50.650Z,1024.69
2023-05-17T07:42:50.641Z,1024.79
2023-05-17T07:43:50.625Z,1024.84
2023-05-17T07:44:50.632Z,1024.8
2023-05-17T07:45:50.631Z,1024.82
2023-05-17T07:46:50.678Z,1024.78
2023-05-17T07:47:50.938Z,1024.78
2023-05-17T07:48:50.797Z,1024.68
2023-05-17T07:49:50.641Z,1024.74
2023-05-17T07:50:50.667Z,1024.71
2023-05-17T07:51:51.637Z,1024.65
2023-05-17T07:52:50.633Z,1024.6
2023-05-17T07:53:50.633Z,1024.68
2023-05-17T07:54:50.636Z,1024.63
2023-05-17T07:55:50.636Z,1024.6
2023-05-17T07:56:50.631Z,1024.56
2023-05-17T07:57:50.646Z,1024.61
2023-05-17T07:58:50.620Z,1024.6
2023-05-17T07:59:50.667Z,1024.56
2023-05-17T08:00:50.630Z,1024.51
2023-05-17T08:01:50.630Z,1024.47
2023-05-17T08:02:50.650Z,1024.45
2023-05-17T08:03:50.626Z,1024.49
2023-05-17T08:04:50.825Z,1024.46
2023-05-17T08:05:50.835Z,1024.46
2023-05-17T08:06:50.659Z,1024.4
2023-05-17T08:07:50.630Z,1024.33
2023-05-17T08:08:50.654Z,1024.37
2023-05-17T08:09:50.645Z,1024.37
2023-05-17T08:10:50.631Z,1024.43
2023-05-17T08:11:50.637Z,1024.41
2023-05-17T08:12:50.628Z,1024.4
2023-05-17T08:13:50.650Z,1024.39
2023-05-17T08:14:50.639Z,1024.43
2023-05-17T08:15:53.637Z,1024.47
2023-05-17T08:16:50.648Z,1024.45
2023-05-17T08:17:50.744Z,1024.41
2023-05-17T08:18:50.774Z,1024.44
2023-05-17T08:19:51.755Z,1024.46
2023-05-17T08:20:50.642Z,1024.36
2023-05-17T08:21:50.633Z,1024.31
2023-05-17T08:22:51.657Z,1024.35
2023-05-17T08:23:50.632Z,1024.29
2023-05-17T08:24:50.637Z,1024.3
2023-05-17T08:25:50.628Z,1024.28
2023-05-17T08:26:50.630Z,1024.35
2023-05-17T08:27:50.627Z,1024.27
2023-05-17T08:28:50.632Z,1024.29
2023-05-17T08:29:50.628Z,1024.33
2023-05-17T08:30:50.630Z,1024.34
2023-05-17T08:31:50.628Z,1024.29
2023-05-17T08:32:50.687Z,1024.28
2023-05-17T08:33:50.658Z,1024.3
2023-05-17T08:34:50.642Z,1024.36
2023-05-17T08:35:50.639Z,1024.34
2023-05-17T08:36:50.662Z,1024.39
2023-05-17T08:37:50.628Z,1024.29
2023-05-17T08:38:50.624Z,1024.36
2023-05-17T08:39:50.691Z,1024.31
2023-05-17T08:40:50.615Z,1024.4
2023-05-17T08:41:50.640Z,1024.4
2023-05-17T08:42:50.650Z,1024.46
2023-05-17T08:43:50.645Z,1024.43
2023-05-17T08:44:50.648Z,1024.43
2023-05-17T08:45:50.624Z,1024.42
2023-05-17T08:46:50.637Z,1024.49
2023-05-17T08:47:50.676Z,1024.53
2023-05-17T08:48:50.719Z,1024.57
2023-05-17T08:49:50.649Z,1024.53
2023-05-17T08:50:50.672Z,1024.54
2023-05-17T08:51:50.635Z,1024.53
2023-05-17T08:52:50.732Z,1024.65
2023-05-17T08:53:51.015Z,1024.63
2023-05-17T08:54:50.631Z,1024.67
2023-05-17T08:55:50.638Z,1024.66
2023-05-17T08:56:50.636Z,1024.71
2023-05-17T08:57:50.638Z,1024.66
2023-05-17T08:59:50.632Z,1024.64
2023-05-17T09:00:50.640Z,1024.61
2023-05-17T09:01:50.623Z,1024.59
2023-05-17T09:02:50.641Z,1024.62
2023-05-17T09:03:50.636Z,1024.63
2023-05-17T09:04:50.742Z,1024.59
2023-05-17T09:05:50.661Z,1024.6
2023-05-17T09:06:50.662Z,1024.56
2023-05-17T09:07:50.621Z,1024.61
2023-05-17T09:08:50.626Z,1024.62
2023-05-17T09:09:50.636Z,1024.6
2023-05-17T09:10:50.637Z,1024.6
2023-05-17T09:11:50.629Z,1024.59
2023-05-17T09:12:50.634Z,1024.59
2023-05-17T09:13:50.624Z,1024.63
2023-05-17T09:14:50.630Z,1024.63
2023-05-17T09:15:50.624Z,1024.61
2023-05-17T09:16:50.623Z,1024.61
2023-05-17T09:17:50.688Z,1024.57
2023-05-17T09:18:50.815Z,1024.61
2023-05-17T09:19:50.971Z,1024.62
2023-05-17T09:20:50.638Z,1024.63
2023-05-17T09:22:26.026Z,1024.64
2023-05-17T09:23:24.680Z,1024.63
2023-05-17T09:24:25.238Z,1024.65
2023-05-17T09:25:24.660Z,1024.65
2023-05-17T09:26:24.659Z,1024.59
2023-05-17T09:27:24.656Z,1024.61
2023-05-17T09:28:24.659Z,1024.59
2023-05-17T09:29:24.660Z,1024.64
2023-05-17T09:30:25.292Z,1024.62
2023-05-17T09:31:24.649Z,1024.63
2023-05-17T09:32:24.700Z,1024.65
2023-05-17T09:33:24.693Z,1024.73
2023-05-17T09:34:24.675Z,1024.71
2023-05-17T09:35:24.664Z,1024.66
2023-05-17T09:36:24.655Z,1024.68
2023-05-17T09:37:24.671Z,1024.73
2023-05-17T09:38:25.480Z,1024.77
2023-05-17T09:39:24.650Z,1024.64
2023-05-17T09:40:24.659Z,1024.77
2023-05-17T09:41:24.664Z,1024.74
2023-05-17T09:42:24.648Z,1024.74
2023-05-17T09:43:24.679Z,1024.81
2023-05-17T09:44:25.349Z,1024.74
2023-05-17T09:45:24.663Z,1024.8
2023-05-17T09:46:24.650Z,1024.79
2023-05-17T09:47:24.691Z,1024.82
2023-05-17T09:48:24.739Z,1024.85
2023-05-17T09:49:24.658Z,1024.81
2023-05-17T09:50:26.133Z,1024.84
2023-05-17T09:51:24.666Z,1024.74
2023-05-17T09:52:24.675Z,1024.8
2023-05-17T09:53:24.656Z,1024.76
2023-05-17T09:54:24.668Z,1024.77
2023-05-17T09:55:24.664Z,1024.82
2023-05-17T09:56:24.672Z,1024.78
2023-05-17T09:57:24.677Z,1024.76
2023-05-17T09:58:24.653Z,1024.77
2023-05-17T09:59:24.651Z,1024.79
2023-05-17T10:00:24.641Z,1024.77
2023-05-17T10:01:24.650Z,1024.84
2023-05-17T10:02:24.645Z,1024.84
2023-05-17T10:03:24.720Z,1024.9
2023-05-17T10:04:24.652Z,1024.92
2023-05-17T10:05:24.742Z,1024.89
2023-05-17T10:06:38.989Z,1024.94
2023-05-17T10:07:24.656Z,1024.93
2023-05-17T10:08:24.658Z,1024.89
2023-05-17T10:09:24.652Z,1024.91
2023-05-17T10:10:24.654Z,1024.9
2023-05-17T10:11:24.672Z,1024.87
2023-05-17T10:12:25.584Z,1024.89
2023-05-17T10:13:24.660Z,1024.89
2023-05-17T10:14:24.689Z,1024.83
2023-05-17T10:15:24.662Z,1024.9
2023-05-17T10:16:24.648Z,1024.81
2023-05-17T10:17:24.672Z,1024.86
2023-05-17T10:18:24.728Z,1024.88
2023-05-17T10:19:24.803Z,1024.83
2023-05-17T10:20:24.663Z,1024.88
2023-05-17T10:21:24.665Z,1024.87
2023-05-17T10:22:24.665Z,1024.89
2023-05-17T10:23:24.653Z,1024.88
2023-05-17T10:24:24.664Z,1024.88
2023-05-17T10:25:24.671Z,1024.91
2023-05-17T10:26:24.665Z,1024.89
2023-05-17T10:27:24.662Z,1024.91
2023-05-17T10:28:24.696Z,1024.94
2023-05-17T10:29:24.681Z,1024.88
2023-05-17T10:30:24.655Z,1024.91
2023-05-17T10:31:24.677Z,1024.91
2023-05-17T10:32:24.715Z,1024.91
2023-05-17T10:33:24.817Z,1024.91
2023-05-17T10:34:24.691Z,1024.91
2023-05-17T10:35:24.670Z,1024.86
2023-05-17T10:36:24.691Z,1024.88
2023-05-17T10:37:24.664Z,1024.8
2023-05-17T10:38:31.902Z,1024.85
2023-05-17T10:39:24.670Z,1024.82
2023-05-17T10:40:24.646Z,1024.83
2023-05-17T10:41:24.663Z,1024.83
2023-05-17T10:42:24.662Z,1024.83
2023-05-17T10:43:24.652Z,1024.77
2023-05-17T10:44:24.661Z,1024.68
2023-05-17T10:45:24.662Z,1024.73
2023-05-17T10:46:24.663Z,1024.76
2023-05-17T10:47:24.705Z,1024.68
2023-05-17T10:48:24.781Z,1024.71
2023-05-17T10:49:24.931Z,1024.67
2023-05-17T10:50:24.660Z,1024.65
2023-05-17T10:51:24.686Z,1024.71
2023-05-17T10:52:24.667Z,1024.74
2023-05-17T10:53:24.656Z,1024.68
2023-05-17T10:54:24.652Z,1024.64
2023-05-17T10:55:24.657Z,1024.77
2023-05-17T10:56:24.647Z,1024.71
2023-05-17T10:57:24.657Z,1024.71
2023-05-17T10:58:24.640Z,1024.74
2023-05-17T10:59:24.660Z,1024.78
2023-05-17T11:00:24.648Z,1024.78
2023-05-17T11:01:24.653Z,1024.78
2023-05-17T11:02:24.694Z,1024.75
2023-05-17T11:03:24.661Z,1024.82
2023-05-17T11:04:24.689Z,1024.81
2023-05-17T11:05:24.698Z,1024.83
2023-05-17T11:06:25.848Z,1024.8
2023-05-17T11:07:24.652Z,1024.8
2023-05-17T11:08:24.656Z,1024.74
2023-05-17T11:09:24.664Z,1024.74
2023-05-17T11:10:24.637Z,1024.79
2023-05-17T11:11:24.661Z,1024.78
2023-05-17T11:12:24.656Z,1024.81
2023-05-17T11:13:24.645Z,1024.81
2023-05-17T11:14:24.643Z,1024.83
2023-05-17T11:15:24.666Z,1024.81
2023-05-17T11:16:24.663Z,1024.8
2023-05-17T11:17:24.683Z,1024.83
2023-05-17T11:18:31.196Z,1024.8
2023-05-17T11:19:24.734Z,1024.81
2023-05-17T11:20:24.730Z,1024.83
2023-05-17T11:21:24.668Z,1024.77
2023-05-17T11:22:24.661Z,1024.81
2023-05-17T11:23:24.652Z,1024.88
2023-05-17T11:24:24.657Z,1024.83
2023-05-17T11:25:24.664Z,1024.81
2023-05-17T11:26:24.659Z,1024.82
2023-05-17T11:27:24.647Z,1024.79
2023-05-17T11:28:24.666Z,1024.74
2023-05-17T11:29:24.660Z,1024.78
2023-05-17T11:30:24.698Z,1024.78
2023-05-17T11:31:24.652Z,1024.73
2023-05-17T11:32:24.677Z,1024.76
2023-05-17T11:33:33.053Z,1024.76
2023-05-17T11:34:24.710Z,1024.73
2023-05-17T11:35:24.667Z,1024.8
2023-05-17T11:36:24.666Z,1024.76
2023-05-17T11:37:24.648Z,1024.82
2023-05-17T11:38:24.661Z,1024.8
2023-05-17T11:39:24.683Z,1024.82
2023-05-17T11:40:24.648Z,1024.82
2023-05-17T11:41:27.129Z,1024.78
2023-05-17T11:42:24.655Z,1024.78
2023-05-17T11:43:24.662Z,1024.81
2023-05-17T11:44:24.658Z,1024.74
2023-05-17T11:45:24.911Z,1024.78
2023-05-17T11:46:24.662Z,1024.74
2023-05-17T11:47:24.765Z,1024.73
2023-05-17T11:48:24.731Z,1024.78
2023-05-17T11:49:34.978Z,1024.75
2023-05-17T11:50:24.648Z,1024.79
2023-05-17T11:51:25.288Z,1024.76
2023-05-17T11:52:24.668Z,1024.73
2023-05-17T11:53:24.658Z,1024.75
2023-05-17T11:54:24.666Z,1024.77
2023-05-17T11:55:24.652Z,1024.8
2023-05-17T11:56:35.540Z,1024.75
2023-05-17T11:57:24.652Z,1024.88
2023-05-17T11:58:24.668Z,1024.85
2023-05-17T11:59:24.657Z,1024.87
2023-05-17T12:00:24.646Z,1024.85
2023-05-17T12:01:24.653Z,1024.89
2023-05-17T12:02:24.649Z,1024.83
2023-05-17T12:03:24.664Z,1024.85
2023-05-17T12:04:24.717Z,1024.85
2023-05-17T12:05:24.658Z,1024.88
2023-05-17T12:06:24.694Z,1024.79
2023-05-17T12:07:24.652Z,1024.81
2023-05-17T12:08:24.663Z,1024.76
2023-05-17T12:09:24.650Z,1024.71
2023-05-17T12:10:24.650Z,1024.76
2023-05-17T12:11:24.657Z,1024.78